Aérodrome :







RETROUVEZ-NOUS SUR...

 
LOGIN :

S'inscrire | Disclaimer

   EN    FR    IT 

 









Légende :    VFR   VFR Marginal   IFR   IFR Intensif   IFR Très Intensif
Visi : 
Plafond : 
>= 8 km
>= 3000ft
5 à 8 km
1000 à 3000 ft
1500m à 5 km
500 à 1000 ft
800 à 1500m
200 à 500 ft
< 800m
< 200 ft
Symboles :   Orages  Brouillard  Fortes neiges  Fortes précipitations  Vent > 20 kt






- Altitude de l'aérodrome : 54 ft
- Code IATA : BEL


SBBE - Val de Cans Int.

DERNIER METAR :
  • 190500Z 10003KT 4000 BR NSC 24/23 Q1011

METARs EXPIRÉS :
  • 190430Z 08005KT 5000 BR NSC 25/23 Q1011
  • 190400Z 08005KT CAVOK 25/23 Q1011
  • 190300Z 06005KT CAVOK 24/23 Q1012

TAF TAF SBBE
Valide du 19 à 00h jusqu'au 20 à 00h UTC


182130Z 1900/1924 06007KT 9999 FEW025 TN24/1909Z TX34/1917Z
BECMG 1902/1904 CAVOK
BECMG 1912/1915 10010KT BKN025
BECMG 1917/1919 35010KT 7000 SCT030 FEW035TCU
BECMG 1921/1923 06007KT FEW023 RMK PHC
FIR SBAZ / Amérique du Sud



MET'MAP, la Météo Aéronautique d'un coup d'oeil ! - Copyright ORBIFLY Décembre 2007 - Disclaimer

ORBIFLY MET'MAP TEAM :

Programmation & Développement : Alexandra Zaïnal
Sur une idée originale de : Baudouin d'Aumeries
Assistance à la programmation : Marc-Olivier Méhu
Soutien technique & logistique : Manuel Goepfert

Contact : metmap@orbifly.com




SOURCES & CREDITS :

   NOAA